createdAt,value
2024-02-29T00:01:59.701Z,66.30
2024-02-29T00:04:26.258Z,66.40
2024-02-29T00:06:52.808Z,66.40
2024-02-29T00:09:23.932Z,66.30
2024-02-29T00:11:50.462Z,66.30
2024-02-29T00:14:16.967Z,66.30
2024-02-29T00:16:43.476Z,66.20
2024-02-29T00:19:10.084Z,66.10
2024-02-29T00:21:38.128Z,66.10
2024-02-29T00:24:05.905Z,66.10
2024-02-29T00:26:32.418Z,66.00
2024-02-29T00:28:58.942Z,66.10
2024-02-29T00:31:25.447Z,66.10
2024-02-29T00:33:51.961Z,66.10
2024-02-29T00:36:18.485Z,65.90
2024-02-29T00:38:44.977Z,65.90
2024-02-29T00:41:11.488Z,66.00
2024-02-29T00:43:41.928Z,66.10
2024-02-29T00:46:08.539Z,66.00
2024-02-29T00:48:35.185Z,66.00
2024-02-29T00:51:01.726Z,66.10
2024-02-29T00:53:28.212Z,66.20
2024-02-29T00:55:54.750Z,66.10
2024-02-29T00:58:21.251Z,66.00
2024-02-29T01:00:47.879Z,66.10
2024-02-29T01:03:14.410Z,65.90
2024-02-29T01:05:40.933Z,66.00
2024-02-29T01:08:07.441Z,65.80
2024-02-29T01:10:33.972Z,65.90
2024-02-29T01:13:00.529Z,66.00
2024-02-29T01:15:27.097Z,66.00
2024-02-29T01:17:53.682Z,66.00
2024-02-29T01:20:20.221Z,65.90
2024-02-29T01:22:46.712Z,65.90
2024-02-29T01:25:13.274Z,65.90
2024-02-29T01:27:39.842Z,65.80
2024-02-29T01:30:06.380Z,65.80
2024-02-29T01:32:35.442Z,65.90
2024-02-29T01:35:06.009Z,65.80
2024-02-29T01:37:32.533Z,65.70
2024-02-29T01:40:00.019Z,65.80
2024-02-29T01:42:26.591Z,65.60
2024-02-29T01:44:53.127Z,65.80
2024-02-29T01:47:19.626Z,65.50
2024-02-29T01:49:46.137Z,65.90
2024-02-29T01:52:12.658Z,65.80
2024-02-29T01:54:39.295Z,65.60
2024-02-29T01:57:06.912Z,65.60
2024-02-29T01:59:33.402Z,65.60
2024-02-29T02:01:59.965Z,65.60
2024-02-29T02:04:26.620Z,65.80
2024-02-29T02:06:53.258Z,65.60
2024-02-29T02:09:19.768Z,65.60
2024-02-29T02:11:46.339Z,65.50
2024-02-29T02:14:12.919Z,65.60
2024-02-29T02:16:39.432Z,65.60
2024-02-29T02:19:05.986Z,65.40
2024-02-29T02:21:32.557Z,65.40
2024-02-29T02:23:59.062Z,65.40
2024-02-29T02:26:25.603Z,65.50
2024-02-29T02:28:52.088Z,65.50
2024-02-29T02:31:18.652Z,65.50
2024-02-29T02:33:45.175Z,65.50
2024-02-29T02:36:11.684Z,65.50
2024-02-29T02:38:38.181Z,65.50
2024-02-29T02:41:04.710Z,65.50
2024-02-29T02:43:31.208Z,65.50
2024-02-29T02:45:57.796Z,65.10
2024-02-29T02:48:24.318Z,65.40
2024-02-29T02:50:50.848Z,65.30
2024-02-29T02:53:17.382Z,65.40
2024-02-29T02:55:43.907Z,65.40
2024-02-29T02:58:10.492Z,65.20
2024-02-29T03:00:37.124Z,65.20
2024-02-29T03:03:03.647Z,65.10
2024-02-29T03:05:30.168Z,65.10
2024-02-29T03:07:56.688Z,65.10
2024-02-29T03:10:23.224Z,65.10
2024-02-29T03:12:49.746Z,65.10
2024-02-29T03:15:16.281Z,65.10
2024-02-29T03:17:42.814Z,65.10
2024-02-29T03:20:09.370Z,65.10
2024-02-29T03:22:35.865Z,64.90
2024-02-29T03:25:02.442Z,65.10
2024-02-29T03:27:28.951Z,64.90
2024-02-29T03:29:55.486Z,65.00
2024-02-29T03:32:22.010Z,65.00
2024-02-29T03:34:48.535Z,64.90
2024-02-29T03:37:18.315Z,64.70
2024-02-29T03:39:44.903Z,64.70
2024-02-29T03:42:11.471Z,64.70
2024-02-29T03:44:38.010Z,64.60
2024-02-29T03:47:04.530Z,64.60
2024-02-29T03:49:36.108Z,64.70
2024-02-29T03:52:02.839Z,64.60
2024-02-29T03:54:29.351Z,64.40
2024-02-29T03:56:55.842Z,64.50
2024-02-29T03:59:22.353Z,64.60
2024-02-29T04:01:49.163Z,64.60
2024-02-29T04:04:15.807Z,64.60
2024-02-29T04:06:42.328Z,64.50
2024-02-29T04:09:08.842Z,64.40
2024-02-29T04:11:35.337Z,64.20
2024-02-29T04:14:06.137Z,64.50
2024-02-29T04:16:32.666Z,64.20
2024-02-29T04:18:59.250Z,64.40
2024-02-29T04:21:25.774Z,64.40
2024-02-29T04:23:52.303Z,64.40
2024-02-29T04:26:18.800Z,64.20
2024-02-29T04:28:45.320Z,64.20
2024-02-29T04:31:11.881Z,64.20
2024-02-29T04:33:38.532Z,64.20
2024-02-29T04:36:05.037Z,64.00
2024-02-29T04:38:31.551Z,64.30
2024-02-29T04:43:41.994Z,64.00
2024-02-29T04:46:08.581Z,63.90
2024-02-29T04:48:35.164Z,64.00
2024-02-29T04:51:01.701Z,63.90
2024-02-29T04:53:28.215Z,63.60
2024-02-29T04:55:54.705Z,63.70
2024-02-29T04:58:21.205Z,63.80
2024-02-29T05:00:47.780Z,63.70
2024-02-29T05:03:14.315Z,63.70
2024-02-29T05:05:40.872Z,63.40
2024-02-29T05:08:07.390Z,63.30
2024-02-29T05:10:33.903Z,63.40
2024-02-29T05:13:00.420Z,63.50
2024-02-29T05:15:26.967Z,63.20
2024-02-29T05:17:53.499Z,63.20
2024-02-29T05:20:19.987Z,63.30
2024-02-29T05:22:46.472Z,63.00
2024-02-29T05:25:13.054Z,63.30
2024-02-29T05:27:39.627Z,62.70
2024-02-29T05:30:06.148Z,62.70
2024-02-29T05:32:32.665Z,62.90
2024-02-29T05:34:59.204Z,62.90
2024-02-29T05:37:25.736Z,62.90
2024-02-29T05:39:52.287Z,63.10
2024-02-29T05:42:18.770Z,62.70
2024-02-29T05:44:45.275Z,62.90
2024-02-29T05:47:11.769Z,63.00
2024-02-29T05:49:38.256Z,62.90
2024-02-29T05:52:06.218Z,62.80
2024-02-29T05:54:32.802Z,62.80
2024-02-29T05:57:01.038Z,62.60
2024-02-29T05:59:29.150Z,62.60
2024-02-29T06:01:55.735Z,62.80
2024-02-29T06:04:22.465Z,62.60
2024-02-29T06:06:49.118Z,62.70
2024-02-29T06:09:15.660Z,62.70
2024-02-29T06:11:42.207Z,62.70
2024-02-29T06:14:09.016Z,62.20
2024-02-29T06:16:35.502Z,62.40
2024-02-29T06:19:02.082Z,62.10
2024-02-29T06:21:28.625Z,62.00
2024-02-29T06:23:55.129Z,62.20
2024-02-29T06:26:21.617Z,62.40
2024-02-29T06:28:48.127Z,61.90
2024-02-29T06:31:14.716Z,62.10
2024-02-29T06:33:41.368Z,61.90
2024-02-29T06:36:10.154Z,61.90
2024-02-29T06:38:36.894Z,61.90
2024-02-29T06:41:03.391Z,61.90
2024-02-29T06:43:31.630Z,62.10
2024-02-29T06:45:59.178Z,61.80
2024-02-29T06:48:25.707Z,62.10
2024-02-29T06:50:52.215Z,62.10
2024-02-29T06:53:18.733Z,61.70
2024-02-29T06:55:45.233Z,62.00
2024-02-29T06:58:11.817Z,61.50
2024-02-29T07:00:38.339Z,61.70
2024-02-29T07:03:04.883Z,61.70
2024-02-29T07:05:34.238Z,61.70
2024-02-29T07:08:02.266Z,61.60
2024-02-29T07:10:28.783Z,61.80
2024-02-29T07:12:55.391Z,61.20
2024-02-29T07:15:21.911Z,62.10
2024-02-29T07:17:48.517Z,61.50
2024-02-29T07:20:15.047Z,61.40
2024-02-29T07:22:41.648Z,61.60
2024-02-29T07:25:08.212Z,61.30
2024-02-29T07:27:34.824Z,61.40
2024-02-29T07:30:06.399Z,61.60
2024-02-29T07:32:32.909Z,61.50
2024-02-29T07:34:59.434Z,61.40
2024-02-29T07:37:26.006Z,61.20
2024-02-29T07:39:54.277Z,61.40
2024-02-29T07:42:20.833Z,61.40
2024-02-29T07:44:47.343Z,61.40
2024-02-29T07:47:13.849Z,61.10
2024-02-29T07:49:40.337Z,61.50
2024-02-29T07:52:06.859Z,61.00
2024-02-29T07:54:33.413Z,61.20
2024-02-29T07:56:59.934Z,61.40
2024-02-29T07:59:26.449Z,61.20
2024-02-29T08:01:53.159Z,61.10
2024-02-29T08:04:19.805Z,60.90
2024-02-29T08:06:46.363Z,61.10
2024-02-29T08:09:12.864Z,61.10
2024-02-29T08:11:39.407Z,61.20
2024-02-29T08:14:05.924Z,61.10
2024-02-29T08:16:32.418Z,61.20
2024-02-29T08:18:58.936Z,61.30
2024-02-29T08:21:30.391Z,60.90
2024-02-29T08:23:56.915Z,61.00
2024-02-29T08:26:23.419Z,61.00
2024-02-29T08:28:49.921Z,60.90
2024-02-29T08:31:18.349Z,61.00
2024-02-29T08:33:44.996Z,61.30
2024-02-29T08:36:11.530Z,61.20
2024-02-29T08:38:38.055Z,61.10
2024-02-29T08:41:04.549Z,60.90
2024-02-29T08:43:31.056Z,61.10
2024-02-29T08:45:57.610Z,60.70
2024-02-29T08:48:24.157Z,60.90
2024-02-29T08:50:50.663Z,60.80
2024-02-29T08:53:18.361Z,61.30
2024-02-29T08:55:44.865Z,61.20
2024-02-29T08:58:11.422Z,61.00
2024-02-29T09:00:38.099Z,61.10
2024-02-29T09:03:04.621Z,61.30
2024-02-29T09:05:31.134Z,61.30
2024-02-29T09:07:57.686Z,61.40
2024-02-29T09:10:24.263Z,61.40
2024-02-29T09:12:50.827Z,61.20
2024-02-29T09:15:17.358Z,61.20
2024-02-29T09:17:44.251Z,61.40
2024-02-29T09:20:10.809Z,61.10
2024-02-29T09:22:37.325Z,61.20
2024-02-29T09:25:03.921Z,61.10
2024-02-29T09:27:36.433Z,61.00
2024-02-29T09:30:02.974Z,61.10
2024-02-29T09:32:29.510Z,60.90
2024-02-29T09:34:56.022Z,61.10
2024-02-29T09:37:22.614Z,61.20
2024-02-29T09:39:49.204Z,61.10
2024-02-29T09:42:16.021Z,60.80
2024-02-29T09:44:42.604Z,60.90
2024-02-29T09:47:09.100Z,60.70
2024-02-29T09:49:35.625Z,60.60
2024-02-29T09:52:02.167Z,60.90
2024-02-29T09:54:28.715Z,60.50
2024-02-29T09:56:55.206Z,60.80
2024-02-29T09:59:21.702Z,61.10
2024-02-29T10:01:48.463Z,61.30
2024-02-29T10:04:15.088Z,61.00
2024-02-29T10:06:41.677Z,61.40
2024-02-29T10:09:08.210Z,61.40
2024-02-29T10:11:34.779Z,61.40
2024-02-29T10:14:01.354Z,61.00
2024-02-29T10:16:28.923Z,60.90
2024-02-29T10:18:55.744Z,61.30
2024-02-29T10:21:22.337Z,61.20
2024-02-29T10:23:54.436Z,61.30
2024-02-29T10:26:20.939Z,61.40
2024-02-29T10:28:48.454Z,61.40
2024-02-29T10:31:14.981Z,61.30
2024-02-29T10:33:41.535Z,61.30
2024-02-29T10:36:08.078Z,61.50
2024-02-29T10:38:34.618Z,61.30
2024-02-29T10:41:01.144Z,61.40
2024-02-29T10:43:30.440Z,61.50
2024-02-29T10:45:56.954Z,61.40
2024-02-29T10:48:23.528Z,61.50
2024-02-29T10:50:50.074Z,61.50
2024-02-29T10:53:16.607Z,61.40
2024-02-29T10:55:43.110Z,61.40
2024-02-29T10:58:09.760Z,61.50
2024-02-29T11:00:36.421Z,61.70
2024-02-29T11:03:02.992Z,61.70
2024-02-29T11:05:29.481Z,61.60
2024-02-29T11:07:55.994Z,61.40
2024-02-29T11:10:22.578Z,61.40
2024-02-29T11:12:49.151Z,61.40
2024-02-29T11:15:15.812Z,61.60
2024-02-29T11:17:42.340Z,61.40
2024-02-29T11:20:08.851Z,61.30
2024-02-29T11:22:35.917Z,61.50
2024-02-29T11:25:02.947Z,61.50
2024-02-29T11:27:29.481Z,61.50
2024-02-29T11:29:56.146Z,61.40
2024-02-29T11:32:22.766Z,61.60
2024-02-29T11:34:49.377Z,61.60
2024-02-29T11:37:18.610Z,61.70
2024-02-29T11:39:45.240Z,61.80
2024-02-29T11:42:11.775Z,61.80
2024-02-29T11:44:38.255Z,61.90
2024-02-29T11:47:04.753Z,61.90
2024-02-29T11:49:31.319Z,61.80
2024-02-29T11:51:57.890Z,61.80
2024-02-29T11:54:26.677Z,61.80
2024-02-29T11:56:53.659Z,62.10
2024-02-29T11:59:20.149Z,61.90
2024-02-29T12:01:46.755Z,61.80
2024-02-29T12:04:13.296Z,61.80
2024-02-29T12:06:39.852Z,61.80
2024-02-29T12:09:06.383Z,62.50
2024-02-29T12:11:33.061Z,61.80
2024-02-29T12:13:59.718Z,61.90
2024-02-29T12:16:26.325Z,62.00
2024-02-29T12:18:52.891Z,62.00
2024-02-29T12:21:19.429Z,62.00
2024-02-29T12:23:45.959Z,62.00
2024-02-29T12:26:12.546Z,62.00
2024-02-29T12:28:39.211Z,62.10
2024-02-29T12:31:05.743Z,62.10
2024-02-29T12:33:32.327Z,62.10
2024-02-29T12:35:58.955Z,61.90
2024-02-29T12:38:25.443Z,62.00
2024-02-29T12:40:51.966Z,62.10
2024-02-29T12:43:18.575Z,61.90
2024-02-29T12:45:45.126Z,62.10
2024-02-29T12:48:11.760Z,61.90
2024-02-29T12:50:38.327Z,61.90
2024-02-29T12:53:04.962Z,62.10
2024-02-29T12:55:31.512Z,62.10
2024-02-29T12:57:58.077Z,62.00
2024-02-29T13:00:24.603Z,62.00
2024-02-29T13:02:51.188Z,61.90
2024-02-29T13:05:17.821Z,61.90
2024-02-29T13:07:44.414Z,62.00
2024-02-29T13:10:10.943Z,62.10
2024-02-29T13:12:37.543Z,62.10
2024-02-29T13:15:04.067Z,62.20
2024-02-29T13:17:30.650Z,62.10
2024-02-29T13:19:57.178Z,62.20
2024-02-29T13:22:23.753Z,62.30
2024-02-29T13:24:50.347Z,62.00
2024-02-29T13:27:18.593Z,62.10
2024-02-29T13:29:45.091Z,62.20
2024-02-29T13:32:11.587Z,62.50
2024-02-29T13:34:38.085Z,62.40
2024-02-29T13:37:04.618Z,62.50
2024-02-29T13:39:31.141Z,62.30
2024-02-29T13:41:57.653Z,62.40
2024-02-29T13:44:24.139Z,62.30
2024-02-29T13:46:50.690Z,62.40
2024-02-29T13:49:21.794Z,62.40
2024-02-29T13:51:49.517Z,62.50
2024-02-29T13:54:16.013Z,62.40
2024-02-29T13:56:42.522Z,62.20
2024-02-29T13:59:09.009Z,62.20
2024-02-29T14:01:35.591Z,62.30
2024-02-29T14:04:02.195Z,62.40
2024-02-29T14:06:28.717Z,62.30
2024-02-29T14:08:55.228Z,62.30
2024-02-29T14:11:22.474Z,62.40
2024-02-29T14:13:48.990Z,62.50
2024-02-29T14:16:15.507Z,62.30
2024-02-29T14:18:42.087Z,62.40
2024-02-29T14:21:08.613Z,62.40
2024-02-29T14:23:35.121Z,62.20
2024-02-29T14:26:01.697Z,62.40
2024-02-29T14:28:28.249Z,62.40
2024-02-29T14:30:54.840Z,62.30
2024-02-29T14:33:21.454Z,62.50
2024-02-29T14:35:48.641Z,62.30
2024-02-29T14:38:15.145Z,62.40
2024-02-29T14:40:41.644Z,62.30
2024-02-29T14:43:08.191Z,62.40
2024-02-29T14:45:36.688Z,62.40
2024-02-29T14:48:03.323Z,62.50
2024-02-29T14:50:29.874Z,62.50
2024-02-29T14:52:56.378Z,62.40
2024-02-29T14:55:22.955Z,62.40
2024-02-29T14:57:49.565Z,62.40
2024-02-29T15:00:16.149Z,62.70
2024-02-29T15:02:42.691Z,62.50
2024-02-29T15:05:09.230Z,62.60
2024-02-29T15:07:35.725Z,62.60
2024-02-29T15:10:02.367Z,62.70
2024-02-29T15:12:28.997Z,62.70
2024-02-29T15:14:55.527Z,62.60
2024-02-29T15:17:22.017Z,62.70
2024-02-29T15:19:48.529Z,62.40
2024-02-29T15:22:15.041Z,62.50
2024-02-29T15:24:41.631Z,62.50
2024-02-29T15:27:12.845Z,62.60
2024-02-29T15:29:39.350Z,62.70
2024-02-29T15:32:05.898Z,62.60
2024-02-29T15:34:32.524Z,62.60
2024-02-29T15:36:59.110Z,62.40
2024-02-29T15:39:25.647Z,62.80
2024-02-29T15:41:54.685Z,62.40
2024-02-29T15:44:21.225Z,62.60
2024-02-29T15:46:47.823Z,62.70
2024-02-29T15:49:14.447Z,62.80
2024-02-29T15:51:41.046Z,62.80
2024-02-29T15:54:07.565Z,63.50
2024-02-29T15:56:34.096Z,62.70
2024-02-29T15:59:00.725Z,62.70
2024-02-29T16:01:30.824Z,62.80
2024-02-29T16:03:57.406Z,62.80
2024-02-29T16:06:23.982Z,62.70
2024-02-29T16:08:50.487Z,62.80
2024-02-29T16:11:16.991Z,62.90
2024-02-29T16:13:43.794Z,62.80
2024-02-29T16:16:10.344Z,62.80
2024-02-29T16:18:36.853Z,62.80
2024-02-29T16:21:03.356Z,62.80
2024-02-29T16:23:29.847Z,62.80
2024-02-29T16:26:00.911Z,62.90
2024-02-29T16:28:27.647Z,62.70
2024-02-29T16:30:54.303Z,63.00
2024-02-29T16:33:20.885Z,63.00
2024-02-29T16:35:47.435Z,63.00
2024-02-29T16:38:13.937Z,62.80
2024-02-29T16:40:40.439Z,62.90
2024-02-29T16:43:06.980Z,62.90
2024-02-29T16:45:33.511Z,62.80
2024-02-29T16:48:00.077Z,62.80
2024-02-29T16:50:26.598Z,62.90
2024-02-29T16:52:53.090Z,62.90
2024-02-29T16:55:19.661Z,63.00
2024-02-29T16:57:46.321Z,63.00
2024-02-29T17:00:12.894Z,63.00
2024-02-29T17:02:39.413Z,63.00
2024-02-29T17:05:05.966Z,63.00
2024-02-29T17:07:32.534Z,63.00
2024-02-29T17:09:59.254Z,63.00
2024-02-29T17:12:25.811Z,62.80
2024-02-29T17:14:52.314Z,62.90
2024-02-29T17:17:18.825Z,62.80
2024-02-29T17:19:45.331Z,62.90
2024-02-29T17:22:11.857Z,63.00
2024-02-29T17:24:38.417Z,62.90
2024-02-29T17:27:04.936Z,62.90
2024-02-29T17:29:31.465Z,62.90
2024-02-29T17:31:57.979Z,62.80
2024-02-29T17:34:24.472Z,62.80
2024-02-29T17:36:51.065Z,62.90
2024-02-29T17:39:17.589Z,62.90
2024-02-29T17:41:48.803Z,63.00
2024-02-29T17:44:15.309Z,62.70
2024-02-29T17:46:41.832Z,62.80
2024-02-29T17:49:08.467Z,62.80
2024-02-29T17:51:35.002Z,62.80
2024-02-29T17:54:01.503Z,62.90
2024-02-29T17:56:28.002Z,63.00
2024-02-29T17:58:54.505Z,63.00
2024-02-29T18:01:21.301Z,62.90
2024-02-29T18:03:47.966Z,62.90
2024-02-29T18:06:14.518Z,62.90
2024-02-29T18:08:41.085Z,62.90
2024-02-29T18:11:07.628Z,63.00
2024-02-29T18:13:34.241Z,62.80
2024-02-29T18:16:00.888Z,63.00
2024-02-29T18:18:27.408Z,62.80
2024-02-29T18:20:53.910Z,62.60
2024-02-29T18:23:20.438Z,62.60
2024-02-29T18:25:47.018Z,62.60
2024-02-29T18:28:13.580Z,62.60
2024-02-29T18:30:40.125Z,62.50
2024-02-29T18:33:06.670Z,62.50
2024-02-29T18:35:33.212Z,62.40
2024-02-29T18:37:59.704Z,62.50
2024-02-29T18:40:26.284Z,62.50
2024-02-29T18:42:52.904Z,62.50
2024-02-29T18:45:19.446Z,62.50
2024-02-29T18:47:46.156Z,62.50
2024-02-29T18:50:12.678Z,62.50
2024-02-29T18:52:39.181Z,62.50
2024-02-29T18:55:05.691Z,62.40
2024-02-29T18:57:32.203Z,62.30
2024-02-29T18:59:58.706Z,62.30
2024-02-29T19:02:25.275Z,62.40
2024-02-29T19:04:54.868Z,62.20
2024-02-29T19:07:22.663Z,62.10
2024-02-29T19:09:49.782Z,62.20
2024-02-29T19:12:16.283Z,62.10
2024-02-29T19:14:42.782Z,62.10
2024-02-29T19:17:09.279Z,62.20
2024-02-29T19:19:35.777Z,62.20
2024-02-29T19:22:02.299Z,62.20
2024-02-29T19:24:28.879Z,62.10
2024-02-29T19:26:55.467Z,62.10
2024-02-29T19:29:21.960Z,62.10
2024-02-29T19:31:48.463Z,62.20
2024-02-29T19:34:15.064Z,61.90
2024-02-29T19:36:41.802Z,61.90
2024-02-29T19:39:08.323Z,62.00
2024-02-29T19:41:34.821Z,61.90
2024-02-29T19:44:01.553Z,61.80
2024-02-29T19:46:28.130Z,61.90
2024-02-29T19:48:54.763Z,61.90
2024-02-29T19:51:21.298Z,61.80
2024-02-29T19:53:47.835Z,61.90
2024-02-29T19:56:14.364Z,61.70
2024-02-29T19:58:40.894Z,61.60
2024-02-29T20:01:07.536Z,61.60
2024-02-29T20:03:34.140Z,61.50
2024-02-29T20:06:00.680Z,61.50
2024-02-29T20:08:27.173Z,61.60
2024-02-29T20:10:53.698Z,61.60
2024-02-29T20:13:20.313Z,61.30
2024-02-29T20:15:46.902Z,61.40
2024-02-29T20:18:13.497Z,61.50
2024-02-29T20:20:40.054Z,61.40
2024-02-29T20:23:06.605Z,61.40
2024-02-29T20:25:33.199Z,61.40
2024-02-29T20:27:59.833Z,61.30
2024-02-29T20:30:26.359Z,61.40
2024-02-29T20:32:52.880Z,61.30
2024-02-29T20:35:19.408Z,61.20
2024-02-29T20:37:45.917Z,60.90
2024-02-29T20:40:12.527Z,61.00
2024-02-29T20:42:39.172Z,60.90
2024-02-29T20:45:05.686Z,60.90
2024-02-29T20:47:32.216Z,60.90
2024-02-29T20:49:58.838Z,60.90
2024-02-29T20:52:31.069Z,60.80
2024-02-29T20:54:57.674Z,61.20
2024-02-29T20:57:24.224Z,61.10
2024-02-29T20:59:50.729Z,61.00
2024-02-29T21:02:17.271Z,60.80
2024-02-29T21:04:43.769Z,60.90
2024-02-29T21:07:10.307Z,60.90
2024-02-29T21:09:36.834Z,61.00
2024-02-29T21:12:03.348Z,60.90
2024-02-29T21:14:29.840Z,61.00
2024-02-29T21:16:56.351Z,61.00
2024-02-29T21:19:23.041Z,60.90
2024-02-29T21:21:49.586Z,60.80
2024-02-29T21:24:18.981Z,60.90
2024-02-29T21:26:45.487Z,60.80
2024-02-29T21:29:12.996Z,60.90
2024-02-29T21:31:39.522Z,60.90
2024-02-29T21:34:06.092Z,60.90
2024-02-29T21:36:36.997Z,60.80
2024-02-29T21:39:07.008Z,60.80
2024-02-29T21:41:35.724Z,60.70
2024-02-29T21:44:03.064Z,60.80
2024-02-29T21:46:29.784Z,60.70
2024-02-29T21:48:56.387Z,60.70
2024-02-29T21:51:22.898Z,60.70
2024-02-29T21:53:49.411Z,60.90
2024-02-29T21:56:15.922Z,60.80
2024-02-29T21:58:42.448Z,61.00
2024-02-29T22:01:09.134Z,60.80
2024-02-29T22:03:35.749Z,60.90
2024-02-29T22:06:02.272Z,60.90
2024-02-29T22:08:28.801Z,60.90
2024-02-29T22:10:55.322Z,60.70
2024-02-29T22:13:21.914Z,60.90
2024-02-29T22:15:48.462Z,60.90
2024-02-29T22:18:19.229Z,60.80
2024-02-29T22:20:45.788Z,60.70
2024-02-29T22:23:12.315Z,60.70
2024-02-29T22:25:38.890Z,60.70
2024-02-29T22:28:05.466Z,60.80
2024-02-29T22:30:31.974Z,60.70
2024-02-29T22:32:58.491Z,60.70
2024-02-29T22:35:24.998Z,60.90
2024-02-29T22:37:51.496Z,60.90
2024-02-29T22:40:18.033Z,60.70
2024-02-29T22:42:44.566Z,60.90
2024-02-29T22:45:11.075Z,61.10
2024-02-29T22:47:37.634Z,61.80
2024-02-29T22:50:04.179Z,61.00
2024-02-29T22:52:30.845Z,61.10
2024-02-29T22:54:57.495Z,60.90
2024-02-29T22:57:24.011Z,60.90
2024-02-29T22:59:50.517Z,60.90
2024-02-29T23:02:17.067Z,60.90
2024-02-29T23:04:43.576Z,61.10
2024-02-29T23:07:10.191Z,60.90
2024-02-29T23:09:36.756Z,60.90
2024-02-29T23:12:03.258Z,60.90
2024-02-29T23:14:29.749Z,60.80
2024-02-29T23:16:56.250Z,61.00
2024-02-29T23:19:22.830Z,61.20
2024-02-29T23:21:49.488Z,61.20
2024-02-29T23:24:16.083Z,61.00
2024-02-29T23:26:42.579Z,61.00
2024-02-29T23:29:09.120Z,61.00
2024-02-29T23:31:35.703Z,61.10
2024-02-29T23:34:02.299Z,61.00
2024-02-29T23:36:28.795Z,61.20
2024-02-29T23:38:55.314Z,61.20
2024-02-29T23:41:21.850Z,61.00
2024-02-29T23:43:48.384Z,61.10
2024-02-29T23:46:14.935Z,61.00
2024-02-29T23:48:41.488Z,61.00
2024-02-29T23:51:08.000Z,61.10
2024-02-29T23:53:34.542Z,61.20
2024-02-29T23:56:01.051Z,61.20
2024-02-29T23:58:27.628Z,61.10
